Wardner, Idaho
Current Conditions -  °F | °C
As of 6:23 AM on Friday 24 Oct 2014 (Local Time) from KMLP Reporting Station
Overcast Overcast  
Wind Chill: 26°   Ceiling: 2800
Heat Index: 32°   Visibility: 10mi
Dew Point: 31°   Wind: 7mph
Humidity: 96%   Direction: 220°SW
Pressure: 30.05"   Gusts: NA
Location:  47.7187°N, 116.087°W
Report Text: KMLP 241323Z AUTO 22006KT 10SM FEW005 BKN028 OVC041 00/M01 A3005 RMK AO2 T00001006
Loading
Personal Weather Stations






























Interactive Weather Map
Tropical Storm Tracking
New forecast layout! Learn more

10-Day Weather Forecast

Advertisements
Track Severe Weather on mobile